createdAt,value
2024-04-15T00:00:57.550Z,31.90
2024-04-15T00:01:57.446Z,31.93
2024-04-15T00:02:57.529Z,31.93
2024-04-15T00:03:57.523Z,31.94
2024-04-15T00:04:57.518Z,31.93
2024-04-15T00:05:57.492Z,31.90
2024-04-15T00:06:57.502Z,31.92
2024-04-15T00:07:57.496Z,31.90
2024-04-15T00:08:57.490Z,31.89
2024-04-15T00:09:57.508Z,31.88
2024-04-15T00:10:57.572Z,31.87
2024-04-15T00:11:57.478Z,31.85
2024-04-15T00:12:57.539Z,31.84
2024-04-15T00:13:57.477Z,31.82
2024-04-15T00:14:57.484Z,31.79
2024-04-15T00:15:57.652Z,31.80
2024-04-15T00:16:57.565Z,31.78
2024-04-15T00:17:57.559Z,31.79
2024-04-15T00:18:57.474Z,31.79
2024-04-15T00:19:57.481Z,31.78
2024-04-15T00:20:57.489Z,31.75
2024-04-15T00:21:57.511Z,31.78
2024-04-15T00:22:57.496Z,31.77
2024-04-15T00:23:57.474Z,31.77
2024-04-15T00:24:57.522Z,31.77
2024-04-15T00:25:57.519Z,31.76
2024-04-15T00:26:57.536Z,31.76
2024-04-15T00:27:57.610Z,31.72
2024-04-15T00:28:57.502Z,31.75
2024-04-15T00:29:57.494Z,31.74
2024-04-15T00:30:57.559Z,31.76
2024-04-15T00:31:57.503Z,31.74
2024-04-15T00:32:57.563Z,31.75
2024-04-15T00:33:57.577Z,31.76
2024-04-15T00:34:57.561Z,31.76
2024-04-15T00:35:57.561Z,31.77
2024-04-15T00:36:57.638Z,31.80
2024-04-15T00:37:57.663Z,31.80
2024-04-15T00:38:57.668Z,31.80
2024-04-15T00:39:57.763Z,31.82
2024-04-15T00:40:57.673Z,31.83
2024-04-15T00:41:57.680Z,31.84
2024-04-15T00:42:57.768Z,31.86
2024-04-15T00:43:57.732Z,31.84
2024-04-15T00:44:57.745Z,31.83
2024-04-15T00:45:57.763Z,31.85
2024-04-15T00:46:57.829Z,31.85
2024-04-15T00:47:57.812Z,31.84
2024-04-15T00:48:57.907Z,31.85
2024-04-15T00:49:57.869Z,31.81
2024-04-15T00:50:57.868Z,31.82
2024-04-15T00:51:57.927Z,31.80
2024-04-15T00:52:57.963Z,31.78
2024-04-15T00:53:57.947Z,31.75
2024-04-15T00:54:58.099Z,31.71
2024-04-15T00:55:58.008Z,31.67
2024-04-15T00:56:58.034Z,31.62
2024-04-15T00:57:58.206Z,31.57
2024-04-15T00:58:58.064Z,31.53
2024-04-15T00:59:58.103Z,31.52
2024-04-15T01:00:58.162Z,31.50
2024-04-15T01:01:58.238Z,31.46
2024-04-15T01:02:58.211Z,31.47
2024-04-15T01:03:58.272Z,31.48
2024-04-15T01:04:58.236Z,31.47
2024-04-15T01:05:58.245Z,31.45
2024-04-15T01:06:58.281Z,31.43
2024-04-15T01:07:58.316Z,31.39
2024-04-15T01:08:58.372Z,31.33
2024-04-15T01:09:58.414Z,31.33
2024-04-15T01:11:00.831Z,31.29
2024-04-15T01:11:58.403Z,31.33
2024-04-15T01:12:58.418Z,31.32
2024-04-15T01:13:58.413Z,31.37
2024-04-15T01:14:58.367Z,31.39
2024-04-15T01:15:58.441Z,31.41
2024-04-15T01:16:58.355Z,31.44
2024-04-15T01:17:58.437Z,31.48
2024-04-15T01:18:58.420Z,31.49
2024-04-15T01:19:58.380Z,31.47
2024-04-15T01:20:58.447Z,31.45
2024-04-15T01:21:58.426Z,31.43
2024-04-15T01:22:58.378Z,31.42
2024-04-15T01:23:58.410Z,31.41
2024-04-15T01:24:58.413Z,31.39
2024-04-15T01:25:58.406Z,31.39
2024-04-15T01:26:58.380Z,31.36
2024-04-15T01:27:58.421Z,31.33
2024-04-15T01:28:58.387Z,31.32
2024-04-15T01:29:58.380Z,31.34
2024-04-15T01:30:58.420Z,31.30
2024-04-15T01:31:58.435Z,31.31
2024-04-15T01:32:58.398Z,31.31
2024-04-15T01:33:58.417Z,31.31
2024-04-15T01:34:58.394Z,31.32
2024-04-15T01:35:58.373Z,31.30
2024-04-15T01:36:58.416Z,31.27
2024-04-15T01:37:58.413Z,31.25
2024-04-15T01:38:58.386Z,31.23
2024-04-15T01:39:58.435Z,31.19
2024-04-15T01:40:58.397Z,31.16
2024-04-15T01:41:58.412Z,31.12
2024-04-15T01:42:58.439Z,31.05
2024-04-15T01:43:58.411Z,30.98
2024-04-15T01:44:58.379Z,30.96
2024-04-15T01:45:58.413Z,30.85
2024-04-15T01:46:58.399Z,30.80
2024-04-15T01:47:58.437Z,30.76
2024-04-15T01:48:58.453Z,30.75
2024-04-15T01:49:58.413Z,30.73
2024-04-15T01:50:58.427Z,30.71
2024-04-15T01:51:58.455Z,30.70
2024-04-15T01:52:58.412Z,30.69
2024-04-15T01:53:58.427Z,30.71
2024-04-15T01:54:58.520Z,30.70
2024-04-15T01:55:59.366Z,30.71
2024-04-15T01:56:58.416Z,30.75
2024-04-15T01:57:58.457Z,30.75
2024-04-15T01:58:58.409Z,30.76
2024-04-15T01:59:58.418Z,30.75
2024-04-15T02:00:58.529Z,30.78
2024-04-15T02:01:58.416Z,30.77
2024-04-15T02:02:58.446Z,30.78
2024-04-15T02:03:58.516Z,30.81
2024-04-15T02:04:58.401Z,30.84
2024-04-15T02:05:58.416Z,30.85
2024-04-15T02:06:58.458Z,30.81
2024-04-15T02:07:58.431Z,30.82
2024-04-15T02:08:58.435Z,30.79
2024-04-15T02:09:58.423Z,30.76
2024-04-15T02:10:58.482Z,30.73
2024-04-15T02:11:58.414Z,30.69
2024-04-15T02:12:58.448Z,30.66
2024-04-15T02:13:58.438Z,30.65
2024-04-15T02:14:58.450Z,30.63
2024-04-15T02:15:58.442Z,30.62
2024-04-15T02:16:58.423Z,30.60
2024-04-15T02:17:58.529Z,30.57
2024-04-15T02:18:58.456Z,30.54
2024-04-15T02:19:58.425Z,30.50
2024-04-15T02:20:58.425Z,30.46
2024-04-15T02:21:58.453Z,30.41
2024-04-15T02:22:58.434Z,30.41
2024-04-15T02:23:58.436Z,30.41
2024-04-15T02:24:58.469Z,30.42
2024-04-15T02:25:58.446Z,30.43
2024-04-15T02:26:58.419Z,30.44
2024-04-15T02:27:58.460Z,30.40
2024-04-15T02:28:58.435Z,30.35
2024-04-15T02:29:58.413Z,30.30
2024-04-15T02:30:58.433Z,30.29
2024-04-15T02:31:58.450Z,30.28
2024-04-15T02:32:58.502Z,30.29
2024-04-15T02:33:58.467Z,30.29
2024-04-15T02:34:58.413Z,30.32
2024-04-15T02:35:58.436Z,30.32
2024-04-15T02:36:58.448Z,30.33
2024-04-15T02:37:58.441Z,30.35
2024-04-15T02:38:58.481Z,30.34
2024-04-15T02:39:58.508Z,30.35
2024-04-15T02:40:58.486Z,30.38
2024-04-15T02:41:58.460Z,30.39
2024-04-15T02:42:58.496Z,30.41
2024-04-15T02:43:58.450Z,30.45
2024-04-15T02:44:58.473Z,30.44
2024-04-15T02:45:58.524Z,30.48
2024-04-15T02:46:58.574Z,30.47
2024-04-15T02:47:58.702Z,30.48
2024-04-15T02:48:58.704Z,30.45
2024-04-15T02:49:58.624Z,30.40
2024-04-15T02:50:58.719Z,30.31
2024-04-15T02:51:58.771Z,30.35
2024-04-15T02:52:58.759Z,30.28
2024-04-15T02:53:58.790Z,30.22
2024-04-15T02:54:58.846Z,30.17
2024-04-15T02:55:58.892Z,30.12
2024-04-15T02:56:58.892Z,30.05
2024-04-15T02:57:58.983Z,30.02
2024-04-15T02:58:58.961Z,29.97
2024-04-15T02:59:58.987Z,29.94
2024-04-15T03:00:59.159Z,29.95
2024-04-15T03:01:59.038Z,29.99
2024-04-15T03:02:59.111Z,30.33
2024-04-15T03:03:59.217Z,30.78
2024-04-15T03:04:59.219Z,30.17
2024-04-15T03:05:59.125Z,30.06
2024-04-15T03:06:59.217Z,30.02
2024-04-15T03:07:59.228Z,29.98
2024-04-15T03:08:59.237Z,30.00
2024-04-15T03:09:59.310Z,30.30
2024-04-15T03:10:59.308Z,30.07
2024-04-15T03:11:59.326Z,30.01
2024-04-15T03:12:59.410Z,29.97
2024-04-15T03:13:59.398Z,29.95
2024-04-15T03:14:59.430Z,29.90
2024-04-15T03:16:05.733Z,29.83
2024-04-15T03:17:00.557Z,29.78
2024-04-15T03:17:59.629Z,29.72
2024-04-15T03:18:59.500Z,29.65
2024-04-15T03:19:59.485Z,29.60
2024-04-15T03:21:00.311Z,29.55
2024-04-15T03:21:59.508Z,29.52
2024-04-15T03:22:59.499Z,29.44
2024-04-15T03:23:59.473Z,29.40
2024-04-15T03:24:59.479Z,29.41
2024-04-15T03:25:59.477Z,29.43
2024-04-15T03:26:59.464Z,29.44
2024-04-15T03:27:59.532Z,29.46
2024-04-15T03:28:59.498Z,29.47
2024-04-15T03:29:59.435Z,29.45
2024-04-15T03:30:59.503Z,29.45
2024-04-15T03:31:59.473Z,29.46
2024-04-15T03:32:59.501Z,29.50
2024-04-15T03:33:59.524Z,29.53
2024-04-15T03:34:59.497Z,29.54
2024-04-15T03:35:59.488Z,29.53
2024-04-15T03:36:59.570Z,29.57
2024-04-15T03:37:59.596Z,29.62
2024-04-15T03:38:59.601Z,29.65
2024-04-15T03:39:59.688Z,29.65
2024-04-15T03:40:59.700Z,29.67
2024-04-15T03:41:59.780Z,29.66
2024-04-15T03:42:59.827Z,29.67
2024-04-15T03:43:59.793Z,29.70
2024-04-15T03:44:59.848Z,29.73
2024-04-15T03:45:59.911Z,29.74
2024-04-15T03:46:59.939Z,29.75
2024-04-15T03:47:59.993Z,29.79
2024-04-15T03:49:00.029Z,29.77
2024-04-15T03:49:59.999Z,29.79
2024-04-15T03:51:00.054Z,29.78
2024-04-15T03:52:00.096Z,29.78
2024-04-15T03:53:00.128Z,29.80
2024-04-15T03:54:00.224Z,29.82
2024-04-15T03:55:00.290Z,29.85
2024-04-15T03:56:00.217Z,29.89
2024-04-15T03:57:00.259Z,29.91
2024-04-15T03:58:00.338Z,29.91
2024-04-15T03:59:00.352Z,29.93
2024-04-15T04:00:00.372Z,29.90
2024-04-15T04:01:00.424Z,29.89
2024-04-15T04:02:00.401Z,29.87
2024-04-15T04:03:00.516Z,29.85
2024-04-15T04:04:00.631Z,29.81
2024-04-15T04:05:00.657Z,29.91
2024-04-15T04:06:10.128Z,29.82
2024-04-15T04:07:01.663Z,29.81
2024-04-15T04:08:00.594Z,29.77
2024-04-15T04:09:00.605Z,29.71
2024-04-15T04:10:00.671Z,29.75
2024-04-15T04:11:00.603Z,29.73
2024-04-15T04:12:00.603Z,29.73
2024-04-15T04:13:00.575Z,29.75
2024-04-15T04:14:00.550Z,29.76
2024-04-15T04:15:00.581Z,29.73
2024-04-15T04:16:00.613Z,29.73
2024-04-15T04:17:00.587Z,29.71
2024-04-15T04:18:00.759Z,29.71
2024-04-15T04:19:00.679Z,29.69
2024-04-15T04:20:00.582Z,29.67
2024-04-15T04:21:00.582Z,29.70
2024-04-15T04:22:00.630Z,29.74
2024-04-15T04:23:00.591Z,29.77
2024-04-15T04:24:00.630Z,29.80
2024-04-15T04:25:07.827Z,29.90
2024-04-15T04:26:07.778Z,29.91
2024-04-15T04:27:07.792Z,29.93
2024-04-15T04:28:07.901Z,29.95
2024-04-15T04:29:07.805Z,29.96
2024-04-15T04:30:07.816Z,29.99
2024-04-15T04:31:15.062Z,30.06
2024-04-15T04:32:15.043Z,30.11
2024-04-15T04:33:15.036Z,30.11
2024-04-15T04:34:15.064Z,30.11
2024-04-15T04:35:15.022Z,30.14
2024-04-15T04:36:15.031Z,30.17
2024-04-15T04:37:15.132Z,30.19
2024-04-15T04:38:15.038Z,30.22
2024-04-15T04:39:14.998Z,30.28
2024-04-15T04:40:15.097Z,30.30
2024-04-15T04:41:15.013Z,30.34
2024-04-15T04:42:15.027Z,30.37
2024-04-15T04:43:15.172Z,30.41
2024-04-15T04:44:15.033Z,30.43
2024-04-15T04:45:15.030Z,30.42
2024-04-15T04:46:15.163Z,30.45
2024-04-15T04:47:15.129Z,30.47
2024-04-15T04:48:15.023Z,31.07
2024-04-15T04:49:15.150Z,32.07
2024-04-15T04:50:15.109Z,32.54
2024-04-15T04:51:15.045Z,32.53
2024-04-15T04:52:15.095Z,32.65
2024-04-15T04:53:15.042Z,32.76
2024-04-15T04:54:17.306Z,32.97
2024-04-15T04:55:15.339Z,33.07
2024-04-15T04:56:15.275Z,33.20
2024-04-15T04:57:15.275Z,33.17
2024-04-15T04:58:15.410Z,33.31
2024-04-15T04:59:15.345Z,33.41
2024-04-15T05:00:15.350Z,33.62
2024-04-15T05:02:44.398Z,35.30
2024-04-15T05:03:21.755Z,33.98
2024-04-15T05:04:21.849Z,34.11
2024-04-15T05:05:21.715Z,34.22
2024-04-15T05:06:21.721Z,34.18
2024-04-15T05:07:21.706Z,34.33
2024-04-15T05:08:21.675Z,34.39
2024-04-15T05:09:22.659Z,34.41
2024-04-15T05:10:21.754Z,34.37
2024-04-15T05:11:21.708Z,34.21
2024-04-15T05:12:21.724Z,34.26
2024-04-15T05:13:21.746Z,34.23
2024-04-15T05:14:21.669Z,34.23
2024-04-15T05:15:21.710Z,34.26
2024-04-15T05:16:21.715Z,34.33
2024-04-15T05:17:21.724Z,34.61
2024-04-15T05:18:21.805Z,34.88
2024-04-15T05:19:21.805Z,34.89
2024-04-15T05:20:21.830Z,34.71
2024-04-15T05:21:21.735Z,34.48
2024-04-15T05:22:21.753Z,34.20
2024-04-15T05:23:21.687Z,34.33
2024-04-15T05:24:21.753Z,34.54
2024-04-15T05:25:21.778Z,34.63
2024-04-15T05:26:21.698Z,34.78
2024-04-15T05:27:21.698Z,35.05
2024-04-15T05:28:21.792Z,35.19
2024-04-15T05:29:21.807Z,35.10
2024-04-15T05:30:21.787Z,34.89
2024-04-15T05:31:21.754Z,34.36
2024-04-15T05:32:21.815Z,34.35
2024-04-15T05:33:22.733Z,34.30
2024-04-15T05:34:22.272Z,34.59
2024-04-15T05:35:21.745Z,34.37
2024-04-15T05:36:24.691Z,34.09
2024-04-15T05:37:21.781Z,34.07
2024-04-15T05:38:21.750Z,33.75
2024-04-15T05:39:22.202Z,33.72
2024-04-15T05:40:21.830Z,33.28
2024-04-15T05:41:21.760Z,33.15
2024-04-15T05:42:21.778Z,32.93
2024-04-15T05:43:21.861Z,33.02
2024-04-15T05:44:22.195Z,33.23
2024-04-15T05:45:43.819Z,33.00
2024-04-15T05:47:50.707Z,34.00
2024-04-15T05:48:28.256Z,33.21
2024-04-15T05:49:28.017Z,33.75
2024-04-15T05:50:27.979Z,34.07
2024-04-15T05:51:27.989Z,34.17
2024-04-15T05:52:28.765Z,34.36
2024-04-15T05:53:28.018Z,34.92
2024-04-15T05:54:28.334Z,35.30
2024-04-15T05:55:28.013Z,35.35
2024-04-15T05:56:27.983Z,35.27
2024-04-15T05:57:27.982Z,35.52
2024-04-15T05:58:28.101Z,35.52
2024-04-15T05:59:28.314Z,35.60
2024-04-15T06:00:28.076Z,35.44
2024-04-15T06:01:28.078Z,35.12
2024-04-15T06:02:28.151Z,35.39
2024-04-15T06:03:28.130Z,35.64
2024-04-15T06:04:28.348Z,35.54
2024-04-15T06:05:28.190Z,35.70
2024-04-15T06:06:28.201Z,35.73
2024-04-15T06:07:28.243Z,35.33
2024-04-15T06:08:28.306Z,35.07
2024-04-15T06:09:28.320Z,34.76
2024-04-15T06:10:28.365Z,34.86
2024-04-15T06:11:28.398Z,35.37
2024-04-15T06:12:28.351Z,35.48
2024-04-15T06:13:28.356Z,35.48
2024-04-15T06:14:28.783Z,35.55
2024-04-15T06:15:28.443Z,35.58
2024-04-15T06:16:28.597Z,35.77
2024-04-15T06:17:28.573Z,35.90
2024-04-15T06:18:28.490Z,35.91
2024-04-15T06:19:28.591Z,35.88
2024-04-15T06:20:28.642Z,35.71
2024-04-15T06:21:28.735Z,35.51
2024-04-15T06:22:29.073Z,35.49
2024-04-15T06:23:28.840Z,35.26
2024-04-15T06:24:29.311Z,35.71
2024-04-15T06:25:28.966Z,36.04
2024-04-15T06:26:28.954Z,36.25
2024-04-15T06:27:29.041Z,36.54
2024-04-15T06:28:29.162Z,36.33
2024-04-15T06:29:29.214Z,36.06
2024-04-15T06:30:29.167Z,36.12
2024-04-15T06:31:29.230Z,35.82
2024-04-15T06:32:29.447Z,35.79
2024-04-15T06:33:29.437Z,35.44
2024-04-15T06:34:29.416Z,35.07
2024-04-15T06:35:29.506Z,35.44
2024-04-15T06:36:29.850Z,35.36
2024-04-15T06:37:29.722Z,35.22
2024-04-15T06:38:29.693Z,34.99
2024-04-15T06:39:29.801Z,34.74
2024-04-15T06:40:29.811Z,35.18
2024-04-15T06:41:29.719Z,34.74
2024-04-15T06:42:29.740Z,34.82
2024-04-15T06:43:29.875Z,34.93
2024-04-15T06:44:29.805Z,35.43
2024-04-15T06:45:29.941Z,35.64
2024-04-15T06:46:29.909Z,35.62
2024-04-15T06:47:29.876Z,35.31
2024-04-15T06:48:29.906Z,34.94
2024-04-15T06:49:30.695Z,34.60
2024-04-15T06:50:29.938Z,34.26
2024-04-15T06:51:30.437Z,34.08
2024-04-15T06:52:30.107Z,33.81
2024-04-15T06:53:30.132Z,33.60
2024-04-15T06:54:30.404Z,33.73
2024-04-15T06:55:30.319Z,33.60
2024-04-15T06:56:30.399Z,33.63
2024-04-15T06:57:30.461Z,33.74
2024-04-15T06:58:30.445Z,33.75
2024-04-15T06:59:30.549Z,33.66
2024-04-15T07:00:30.681Z,33.08
2024-04-15T07:01:31.970Z,33.64
2024-04-15T07:02:30.751Z,33.64
2024-04-15T07:03:30.881Z,33.66
2024-04-15T07:04:30.781Z,33.69
2024-04-15T07:05:30.740Z,33.54
2024-04-15T07:06:30.807Z,33.55
2024-04-15T07:07:30.873Z,33.48
2024-04-15T07:08:30.912Z,33.55
2024-04-15T07:09:32.385Z,33.51
2024-04-15T07:10:30.980Z,33.55
2024-04-15T07:11:31.105Z,33.57
2024-04-15T07:12:31.152Z,33.52
2024-04-15T07:13:31.118Z,33.51
2024-04-15T07:14:31.160Z,33.44
2024-04-15T07:15:31.686Z,33.65
2024-04-15T07:16:31.239Z,33.65
2024-04-15T07:17:31.240Z,33.67
2024-04-15T07:18:31.186Z,33.67
2024-04-15T07:19:31.220Z,33.67
2024-04-15T07:20:31.301Z,33.54
2024-04-15T07:21:31.426Z,33.51
2024-04-15T07:22:31.435Z,33.40
2024-04-15T07:23:31.490Z,33.29
2024-04-15T07:24:31.547Z,33.37
2024-04-15T07:25:31.681Z,33.35
2024-04-15T07:26:31.633Z,33.36
2024-04-15T07:27:31.671Z,33.45
2024-04-15T07:28:31.684Z,33.37
2024-04-15T07:29:31.862Z,33.50
2024-04-15T07:30:31.834Z,33.69
2024-04-15T07:31:31.884Z,33.60
2024-04-15T07:32:31.944Z,34.44
2024-04-15T07:33:31.906Z,35.07
2024-04-15T07:34:31.981Z,34.81
2024-04-15T07:35:32.339Z,34.44
2024-04-15T07:36:31.974Z,34.30
2024-04-15T07:37:31.938Z,34.21
2024-04-15T07:38:31.968Z,34.10
2024-04-15T07:39:32.332Z,33.81
2024-04-15T07:40:32.041Z,33.60
2024-04-15T07:41:32.062Z,33.44
2024-04-15T07:42:39.737Z,33.31
2024-04-15T07:43:33.004Z,33.20
2024-04-15T07:44:31.991Z,33.17
2024-04-15T07:45:32.792Z,33.15
2024-04-15T07:46:32.124Z,33.05
2024-04-15T07:47:32.037Z,33.04
2024-04-15T07:48:32.022Z,33.04
2024-04-15T07:49:31.970Z,33.07
2024-04-15T07:50:32.007Z,33.19
2024-04-15T07:51:32.026Z,33.21
2024-04-15T07:52:31.981Z,33.21
2024-04-15T07:53:31.995Z,33.19
2024-04-15T07:54:32.063Z,33.26
2024-04-15T07:55:32.097Z,33.21
2024-04-15T07:56:31.988Z,33.13
2024-04-15T07:57:31.954Z,33.83
2024-04-15T07:58:32.021Z,33.64
2024-04-15T07:59:31.986Z,33.24
2024-04-15T08:00:31.994Z,33.07
2024-04-15T08:01:32.095Z,33.08
2024-04-15T08:02:32.246Z,33.03
2024-04-15T08:03:32.116Z,33.01
2024-04-15T08:04:32.188Z,32.98
2024-04-15T08:05:32.133Z,32.98
2024-04-15T08:06:32.242Z,32.94
2024-04-15T08:07:32.272Z,33.12
2024-04-15T08:08:32.374Z,33.02
2024-04-15T08:09:32.339Z,32.94
2024-04-15T08:10:32.907Z,33.01
2024-04-15T08:11:32.423Z,32.94
2024-04-15T08:12:32.488Z,33.00
2024-04-15T08:13:32.531Z,33.10
2024-04-15T08:14:32.542Z,33.14
2024-04-15T08:15:32.746Z,33.26
2024-04-15T08:16:32.721Z,33.29
2024-04-15T08:17:33.155Z,33.28
2024-04-15T08:18:32.737Z,33.28
2024-04-15T08:19:32.841Z,33.25
2024-04-15T08:20:32.878Z,32.98
2024-04-15T08:21:32.931Z,33.05
2024-04-15T08:22:32.959Z,33.11
2024-04-15T08:23:32.973Z,33.27
2024-04-15T08:24:33.027Z,33.32
2024-04-15T08:25:33.147Z,33.35
2024-04-15T08:26:36.396Z,33.31
2024-04-15T08:27:33.160Z,33.28
2024-04-15T08:28:33.156Z,33.22
2024-04-15T08:29:33.164Z,33.25
2024-04-15T08:30:33.169Z,33.24
2024-04-15T08:31:33.139Z,33.25
2024-04-15T08:32:33.257Z,34.40
2024-04-15T08:33:33.206Z,34.39
2024-04-15T08:34:33.200Z,34.28
2024-04-15T08:35:33.386Z,33.89
2024-04-15T08:36:33.169Z,33.56
2024-04-15T08:37:33.191Z,33.30
2024-04-15T08:38:33.174Z,33.23
2024-04-15T08:39:33.190Z,33.08
2024-04-15T08:40:33.359Z,32.96
2024-04-15T08:41:33.198Z,33.09
2024-04-15T08:42:33.144Z,33.06
2024-04-15T08:43:33.218Z,33.18
2024-04-15T08:44:33.154Z,33.58
2024-04-15T08:45:33.179Z,33.88
2024-04-15T08:46:33.254Z,34.00
2024-04-15T08:47:33.238Z,34.01
2024-04-15T08:48:33.180Z,34.21
2024-04-15T08:49:33.226Z,34.25
2024-04-15T08:50:33.383Z,34.56
2024-04-15T08:51:33.218Z,34.28
2024-04-15T08:52:33.176Z,34.44
2024-04-15T08:53:33.191Z,34.75
2024-04-15T08:54:33.223Z,34.62
2024-04-15T08:55:33.457Z,35.00
2024-04-15T08:56:33.212Z,34.79
2024-04-15T08:57:33.207Z,34.72
2024-04-15T08:58:33.228Z,34.70
2024-04-15T08:59:33.218Z,34.50
2024-04-15T09:00:35.402Z,34.38
2024-04-15T09:01:33.261Z,34.33
2024-04-15T09:02:33.223Z,34.34
2024-04-15T09:03:33.358Z,34.25
2024-04-15T09:04:33.345Z,34.18
2024-04-15T09:05:33.303Z,34.11
2024-04-15T09:06:33.266Z,34.06
2024-04-15T09:07:33.230Z,34.03
2024-04-15T09:08:33.185Z,34.03
2024-04-15T09:09:55.852Z,33.92
2024-04-15T09:10:33.263Z,33.83
2024-04-15T09:11:33.241Z,33.55
2024-04-15T09:12:33.278Z,33.86
2024-04-15T09:13:33.219Z,34.67
2024-04-15T09:14:35.520Z,34.81
2024-04-15T09:15:33.238Z,35.19
2024-04-15T09:16:33.967Z,35.13
2024-04-15T09:17:33.262Z,33.99
2024-04-15T09:18:33.287Z,33.80
2024-04-15T09:19:33.207Z,33.62
2024-04-15T09:20:43.336Z,33.20
2024-04-15T09:21:34.235Z,33.52
2024-04-15T09:22:33.258Z,33.69
2024-04-15T09:23:33.218Z,34.04
2024-04-15T09:24:33.334Z,34.04
2024-04-15T09:25:33.281Z,33.76
2024-04-15T09:26:33.316Z,33.57
2024-04-15T09:27:33.209Z,33.73
2024-04-15T09:28:33.493Z,33.85
2024-04-15T09:29:33.236Z,33.70
2024-04-15T09:30:33.311Z,33.63
2024-04-15T09:31:33.310Z,33.57
2024-04-15T09:32:33.371Z,33.53
2024-04-15T09:33:33.270Z,33.62
2024-04-15T09:34:33.258Z,33.56
2024-04-15T09:35:33.287Z,33.54
2024-04-15T09:36:33.224Z,33.54
2024-04-15T09:37:33.549Z,33.53
2024-04-15T09:38:33.248Z,33.55
2024-04-15T09:39:33.296Z,33.57
2024-04-15T09:40:33.329Z,33.59
2024-04-15T09:41:33.317Z,34.93
2024-04-15T09:42:33.278Z,35.54
2024-04-15T09:43:33.361Z,36.28
2024-04-15T09:44:33.441Z,35.89
2024-04-15T09:45:33.540Z,34.96
2024-04-15T09:46:33.384Z,34.55
2024-04-15T09:47:33.482Z,34.31
2024-04-15T09:48:33.350Z,34.12
2024-04-15T09:49:33.354Z,33.95
2024-04-15T09:50:33.376Z,33.95
2024-04-15T09:51:33.363Z,33.87
2024-04-15T09:52:33.478Z,33.43
2024-04-15T09:53:33.452Z,33.50
2024-04-15T09:54:33.449Z,33.47
2024-04-15T09:55:33.974Z,33.45
2024-04-15T09:56:33.653Z,33.85
2024-04-15T09:57:33.636Z,33.33
2024-04-15T09:58:56.195Z,34.38
2024-04-15T09:59:33.655Z,34.70
2024-04-15T10:00:33.665Z,34.73
2024-04-15T10:01:33.873Z,34.67
2024-04-15T10:02:33.681Z,34.06
2024-04-15T10:03:33.645Z,33.97
2024-04-15T10:04:34.121Z,33.90
2024-04-15T10:05:33.615Z,34.61
2024-04-15T10:06:33.642Z,34.69
2024-04-15T10:07:33.620Z,35.71
2024-04-15T10:08:33.610Z,36.05
2024-04-15T10:09:33.721Z,34.90
2024-04-15T10:10:33.861Z,34.80
2024-04-15T10:11:33.721Z,33.97
2024-04-15T10:12:33.632Z,33.88
2024-04-15T10:13:33.640Z,33.66
2024-04-15T10:14:33.581Z,33.52
2024-04-15T10:15:33.608Z,33.56
2024-04-15T10:16:38.484Z,33.57
2024-04-15T10:17:34.710Z,33.57
2024-04-15T10:18:33.628Z,33.55
2024-04-15T10:19:33.698Z,33.53
2024-04-15T10:20:33.646Z,33.57
2024-04-15T10:21:33.653Z,33.54
2024-04-15T10:22:33.758Z,33.55
2024-04-15T10:23:33.736Z,33.76
2024-04-15T10:24:33.653Z,34.24
2024-04-15T10:25:35.266Z,34.08
2024-04-15T10:26:33.670Z,34.06
2024-04-15T10:27:33.640Z,34.21
2024-04-15T10:28:33.702Z,34.01
2024-04-15T10:29:33.689Z,34.08
2024-04-15T10:30:33.980Z,33.89
2024-04-15T10:31:33.685Z,34.23
2024-04-15T10:32:34.285Z,34.35
2024-04-15T10:33:33.694Z,34.64
2024-04-15T10:34:33.680Z,34.81
2024-04-15T10:35:34.308Z,35.06
2024-04-15T10:36:34.877Z,35.18
2024-04-15T10:37:34.012Z,34.92
2024-04-15T10:38:33.648Z,35.25
2024-04-15T10:39:34.342Z,35.02
2024-04-15T10:40:34.195Z,34.84
2024-04-15T10:41:33.996Z,34.36
2024-04-15T10:42:33.878Z,34.47
2024-04-15T10:43:33.855Z,34.74
2024-04-15T10:44:34.493Z,34.53
2024-04-15T10:45:33.908Z,34.51
2024-04-15T10:46:34.429Z,34.48
2024-04-15T10:47:34.854Z,34.45
2024-04-15T10:48:33.948Z,34.30
2024-04-15T10:49:34.097Z,34.23
2024-04-15T10:50:33.989Z,34.47
2024-04-15T10:51:34.405Z,34.62
2024-04-15T10:52:34.369Z,34.45
2024-04-15T10:53:35.301Z,34.45
2024-04-15T10:54:34.832Z,34.69
2024-04-15T10:55:34.118Z,34.82
2024-04-15T10:56:34.057Z,35.01
2024-04-15T10:57:34.383Z,34.99
2024-04-15T10:58:34.092Z,35.06
2024-04-15T10:59:34.182Z,35.16
2024-04-15T11:00:34.248Z,36.01
2024-04-15T11:01:34.259Z,36.00
2024-04-15T11:02:35.149Z,36.08
2024-04-15T11:03:57.506Z,35.98
2024-04-15T11:04:34.414Z,35.92
2024-04-15T11:05:34.304Z,35.75
2024-04-15T11:06:34.308Z,35.57
2024-04-15T11:07:34.356Z,35.49
2024-04-15T11:08:34.395Z,35.41
2024-04-15T11:09:34.389Z,35.56
2024-04-15T11:10:34.494Z,35.53
2024-04-15T11:11:34.461Z,35.37
2024-04-15T11:12:34.448Z,35.23
2024-04-15T11:13:34.499Z,35.13
2024-04-15T11:14:34.461Z,35.24
2024-04-15T11:15:34.466Z,35.25
2024-04-15T11:16:34.495Z,35.38
2024-04-15T11:17:34.563Z,35.25
2024-04-15T11:18:34.502Z,35.26
2024-04-15T11:19:34.503Z,35.23
2024-04-15T11:20:34.497Z,35.19
2024-04-15T11:21:34.928Z,35.18
2024-04-15T11:22:35.897Z,35.09
2024-04-15T11:23:34.505Z,35.16
2024-04-15T11:24:34.488Z,35.02
2024-04-15T11:25:34.949Z,35.57
2024-04-15T11:26:34.962Z,35.55
2024-04-15T11:27:35.333Z,35.30
2024-04-15T11:28:34.780Z,35.23
2024-04-15T11:29:41.466Z,35.46
2024-04-15T11:30:35.611Z,35.57
2024-04-15T11:31:34.996Z,35.60
2024-04-15T11:32:34.856Z,34.98
2024-04-15T11:33:34.807Z,34.63
2024-04-15T11:34:34.651Z,35.03
2024-04-15T11:35:34.586Z,34.41
2024-04-15T11:36:35.025Z,34.80
2024-04-15T11:37:34.630Z,35.00
2024-04-15T11:38:34.657Z,34.67
2024-04-15T11:39:34.589Z,34.52
2024-04-15T11:40:34.673Z,34.37
2024-04-15T11:41:34.968Z,34.16
2024-04-15T11:42:34.631Z,34.00
2024-04-15T11:43:34.701Z,33.79
2024-04-15T11:44:34.635Z,33.68
2024-04-15T11:45:34.639Z,33.72
2024-04-15T11:46:34.677Z,33.79
2024-04-15T11:47:34.922Z,33.88
2024-04-15T11:48:34.706Z,33.84
2024-04-15T11:49:35.180Z,33.80
2024-04-15T11:50:34.808Z,33.79
2024-04-15T11:51:34.923Z,35.28
2024-04-15T11:52:34.989Z,35.76
2024-04-15T11:53:35.009Z,35.81
2024-04-15T11:54:35.018Z,35.83
2024-04-15T11:55:34.968Z,35.86
2024-04-15T11:56:35.021Z,35.78
2024-04-15T11:57:35.053Z,35.63
2024-04-15T11:58:35.106Z,35.46
2024-04-15T11:59:35.054Z,35.50
2024-04-15T12:00:35.108Z,35.40
2024-04-15T12:02:59.760Z,36.30
2024-04-15T12:03:35.108Z,36.23
2024-04-15T12:04:35.132Z,36.25
2024-04-15T12:05:35.222Z,36.53
2024-04-15T12:06:35.098Z,36.61
2024-04-15T12:07:35.114Z,36.71
2024-04-15T12:08:35.117Z,36.50
2024-04-15T12:09:35.113Z,36.16
2024-04-15T12:10:35.186Z,36.26
2024-04-15T12:11:35.111Z,36.56
2024-04-15T12:12:35.128Z,36.38
2024-04-15T12:13:35.085Z,36.20
2024-04-15T12:14:35.079Z,36.31
2024-04-15T12:15:35.095Z,36.53
2024-04-15T12:16:35.231Z,36.52
2024-04-15T12:17:35.120Z,36.22
2024-04-15T12:18:35.118Z,37.10
2024-04-15T12:19:35.088Z,37.06
2024-04-15T12:20:35.091Z,36.66
2024-04-15T12:21:35.521Z,36.53
2024-04-15T12:22:35.124Z,36.41
2024-04-15T12:23:35.247Z,36.29
2024-04-15T12:24:36.034Z,36.40
2024-04-15T12:25:35.224Z,36.60
2024-04-15T12:26:35.137Z,36.45
2024-04-15T12:27:38.009Z,36.32
2024-04-15T12:28:35.102Z,36.30
2024-04-15T12:29:35.160Z,36.44
2024-04-15T12:30:35.091Z,36.97
2024-04-15T12:31:35.204Z,36.55
2024-04-15T12:32:35.335Z,36.51
2024-04-15T12:33:35.654Z,36.61
2024-04-15T12:34:35.223Z,36.83
2024-04-15T12:35:35.136Z,36.80
2024-04-15T12:36:35.131Z,36.75
2024-04-15T12:37:35.145Z,36.94
2024-04-15T12:38:35.208Z,37.12
2024-04-15T12:39:35.207Z,37.23
2024-04-15T12:40:35.159Z,37.42
2024-04-15T12:41:35.128Z,37.10
2024-04-15T12:42:35.205Z,36.96
2024-04-15T12:43:35.120Z,37.01
2024-04-15T12:44:35.177Z,36.91
2024-04-15T12:45:35.153Z,37.25
2024-04-15T12:46:36.039Z,37.54
2024-04-15T12:47:35.427Z,37.94
2024-04-15T12:48:36.117Z,37.52
2024-04-15T12:49:37.164Z,37.77
2024-04-15T12:50:35.198Z,37.77
2024-04-15T12:51:35.131Z,38.04
2024-04-15T12:52:35.305Z,38.00
2024-04-15T12:53:35.161Z,37.99
2024-04-15T12:54:35.159Z,37.98
2024-04-15T12:55:35.345Z,38.02
2024-04-15T12:56:35.165Z,38.18